Time;durP1;ratioP1;P1;durP2;ratioP2;P2;SDS_P1;SDS_P2;PMS_P1;PMS_P2;Temp;Humidity;BMP_temperature;BMP_pressure;BME280_temperature;BME280_humidity;BME280_pressure;Samples;Min_cycle;Max_cycle;Signal;HPM_P1;HPM_P2
2022/06/27 00:01:48;;;;;;;11.10;8.07;;;;;;;;;;4962061;28;20053;-63
2022/06/27 00:04:14;;;;;;;12.77;7.50;;;;;;;;;;4962323;28;20082;-63
2022/06/27 00:06:40;;;;;;;14.20;8.37;;;;;;;;;;4961487;28;20061;-63
2022/06/27 00:09:06;;;;;;;12.13;7.33;;;;;;;;;;4963584;28;20042;-64
2022/06/27 00:11:32;;;;;;;11.90;8.77;;;;;;;;;;4964086;28;20130;-64
2022/06/27 00:13:58;;;;;;;15.20;8.33;;;;;;;;;;4964878;28;20762;-63
2022/06/27 00:16:24;;;;;;;13.13;7.77;;;;;;;;;;4970534;28;20143;-64
2022/06/27 00:18:50;;;;;;;11.80;8.73;;;;;;;;;;4969874;28;20565;-64
2022/06/27 00:21:16;;;;;;;10.70;8.07;;;;;;;;;;4958251;28;20528;-64
2022/06/27 00:23:44;;;;;;;12.73;8.57;;;;;;;;;;4985343;28;20050;-63
2022/06/27 00:26:12;;;;;;;12.23;7.90;;;;;;;;;;4987759;28;20052;-63
2022/06/27 00:28:39;;;;;;;12.50;8.43;;;;;;;;;;4983765;28;20046;-64
2022/06/27 00:31:05;;;;;;;12.63;9.60;;;;;;;;;;4985992;28;20059;-63
2022/06/27 00:33:31;;;;;;;11.67;8.50;;;;;;;;;;4989849;28;20042;-64
2022/06/27 00:36:12;;;;;;;10.63;8.30;;;;;;;;;;4985248;28;20567;-64
2022/06/27 00:38:40;;;;;;;9.47;6.63;;;;;;;;;;4987872;28;20861;-63
2022/06/27 00:41:06;;;;;;;10.43;6.83;;;;;;;;;;4989030;28;20101;-64
2022/06/27 00:46:54;;;;;;;11.13;7.77;;;;;;;;;;4977559;28;20054;-63
2022/06/27 00:49:20;;;;;;;13.03;8.50;;;;;;;;;;4990196;28;20189;-63
2022/06/27 00:51:49;;;;;;;11.43;7.77;;;;;;;;;;4990480;28;20495;-64
2022/06/27 00:54:17;;;;;;;17.13;9.10;;;;;;;;;;4984740;28;20104;-63
2022/06/27 00:56:43;;;;;;;15.40;9.47;;;;;;;;;;4979094;28;20125;-63
2022/06/27 00:59:09;;;;;;;12.93;9.27;;;;;;;;;;4990136;28;20150;-63
2022/06/27 01:01:35;;;;;;;16.87;10.00;;;;;;;;;;4988977;28;20556;-64
2022/06/27 01:04:01;;;;;;;14.83;10.23;;;;;;;;;;4990681;28;20189;-63
2022/06/27 01:06:28;;;;;;;19.43;10.33;;;;;;;;;;4989444;28;20054;-64
2022/06/27 01:08:58;;;;;;;12.87;10.97;;;;;;;;;;4990733;28;20051;-65
2022/06/27 01:11:27;;;;;;;16.20;10.17;;;;;;;;;;4990838;28;20659;-63
2022/06/27 01:13:55;;;;;;;14.27;10.50;;;;;;;;;;4995637;28;20050;-63
2022/06/27 01:16:24;;;;;;;13.03;9.17;;;;;;;;;;4989550;28;20042;-63
2022/06/27 01:18:50;;;;;;;14.10;9.27;;;;;;;;;;4990312;28;20153;-64
2022/06/27 01:21:21;;;;;;;18.90;12.70;;;;;;;;;;4982397;28;20058;-63
2022/06/27 01:24:16;;;;;;;17.47;13.07;;;;;;;;;;4970820;28;20097;-63
2022/06/27 01:26:45;;;;;;;12.83;10.43;;;;;;;;;;4951751;28;20585;-63
2022/06/27 01:29:14;;;;;;;12.97;10.37;;;;;;;;;;4966425;28;20122;-63
2022/06/27 01:31:40;;;;;;;13.90;10.30;;;;;;;;;;4962994;28;20497;-64
2022/06/27 01:34:07;;;;;;;12.83;10.07;;;;;;;;;;4970429;28;20043;-63
2022/06/27 01:36:43;;;;;;;10.20;9.07;;;;;;;;;;4971239;28;20101;-63
2022/06/27 01:39:34;;;;;;;18.03;10.60;;;;;;;;;;4970844;28;20055;-63
2022/06/27 01:45:10;;;;;;;18.23;12.47;;;;;;;;;;4970637;28;20913;-64
2022/06/27 01:47:36;;;;;;;17.20;9.70;;;;;;;;;;4952849;28;20038;-64
2022/06/27 01:53:26;;;;;;;17.33;11.17;;;;;;;;;;4970703;28;20046;-63
2022/06/27 01:55:55;;;;;;;13.17;10.67;;;;;;;;;;4970859;28;20126;-63
2022/06/27 01:58:21;;;;;;;13.87;10.20;;;;;;;;;;4964790;28;20050;-64
2022/06/27 02:00:47;;;;;;;15.60;10.47;;;;;;;;;;4971060;28;20054;-64
2022/06/27 02:03:24;;;;;;;16.90;12.67;;;;;;;;;;4969030;28;20493;-63
2022/06/27 02:05:53;;;;;;;16.37;12.67;;;;;;;;;;4970789;28;20057;-64
2022/06/27 02:08:21;;;;;;;16.63;12.57;;;;;;;;;;4952747;28;20477;-64
2022/06/27 02:10:52;;;;;;;19.87;12.60;;;;;;;;;;4971371;28;20051;-64
2022/06/27 02:13:18;;;;;;;17.83;13.20;;;;;;;;;;4968491;28;20458;-64
2022/06/27 02:16:22;;;;;;;17.63;11.80;;;;;;;;;;4970531;28;20133;-63
2022/06/27 02:18:49;;;;;;;16.20;12.13;;;;;;;;;;4907572;29;20048;-64
2022/06/27 02:21:24;;;;;;;24.40;15.10;;;;;;;;;;4923173;28;20585;-64
2022/06/27 02:23:54;;;;;;;13.13;10.83;;;;;;;;;;4970496;28;20054;-64
2022/06/27 02:26:26;;;;;;;16.23;12.93;;;;;;;;;;4988471;28;20050;-64
2022/06/27 02:29:04;;;;;;;16.83;12.63;;;;;;;;;;4989795;28;20104;-65
2022/06/27 02:31:31;;;;;;;14.70;11.27;;;;;;;;;;4988427;28;20076;-64
2022/06/27 02:34:04;;;;;;;15.90;11.30;;;;;;;;;;4988787;28;20039;-64
2022/06/27 02:36:32;;;;;;;19.13;11.40;;;;;;;;;;4988756;28;20053;-64
2022/06/27 02:39:00;;;;;;;17.80;12.77;;;;;;;;;;4988479;28;20050;-64
2022/06/27 02:41:32;;;;;;;19.03;14.60;;;;;;;;;;4988532;28;20083;-63
2022/06/27 02:47:21;;;;;;;18.17;12.03;;;;;;;;;;4985604;28;20125;-64
2022/06/27 02:49:47;;;;;;;14.43;11.67;;;;;;;;;;4987608;28;20038;-63
2022/06/27 02:59:07;;;;;;;16.87;12.13;;;;;;;;;;4987201;28;20037;-64
2022/06/27 03:02:05;;;;;;;14.97;11.50;;;;;;;;;;4988951;28;20108;-63
2022/06/27 03:04:31;;;;;;;22.57;13.40;;;;;;;;;;4988740;28;20048;-64
2022/06/27 03:07:09;;;;;;;15.80;13.17;;;;;;;;;;4987980;28;20049;-64
2022/06/27 03:09:35;;;;;;;17.53;13.07;;;;;;;;;;4984697;28;20083;-63
2022/06/27 03:12:06;;;;;;;17.63;11.97;;;;;;;;;;4988555;28;20099;-64
2022/06/27 03:14:34;;;;;;;16.13;11.57;;;;;;;;;;4985687;28;20045;-63
2022/06/27 03:17:19;;;;;;;16.60;11.80;;;;;;;;;;4984799;28;20412;-63
2022/06/27 03:20:11;;;;;;;15.73;11.13;;;;;;;;;;4981146;28;20090;-64
2022/06/27 03:22:37;;;;;;;14.63;10.23;;;;;;;;;;4964005;28;20062;-63
2022/06/27 03:25:10;;;;;;;15.23;11.40;;;;;;;;;;4967712;28;20041;-63
2022/06/27 03:27:39;;;;;;;15.73;10.17;;;;;;;;;;4969359;28;20158;-64
2022/06/27 03:30:11;;;;;;;15.07;9.60;;;;;;;;;;4968995;28;20053;-64
2022/06/27 03:32:37;;;;;;;13.03;10.23;;;;;;;;;;4967369;28;20065;-64
2022/06/27 03:35:03;;;;;;;12.57;9.43;;;;;;;;;;4968547;28;20046;-63
2022/06/27 03:37:29;;;;;;;15.83;11.07;;;;;;;;;;4968588;28;20571;-64
2022/06/27 03:39:58;;;;;;;16.47;11.20;;;;;;;;;;4969200;28;20034;-63
2022/06/27 03:42:24;;;;;;;15.17;10.23;;;;;;;;;;4969972;28;20042;-64
2022/06/27 03:44:50;;;;;;;16.37;10.43;;;;;;;;;;4969465;28;20045;-64
2022/06/27 03:50:39;;;;;;;15.23;11.83;;;;;;;;;;4966477;28;20049;-63
2022/06/27 03:53:05;;;;;;;16.93;11.70;;;;;;;;;;4967429;28;20035;-63
2022/06/27 03:55:35;;;;;;;17.03;12.77;;;;;;;;;;4966378;28;20073;-64
2022/06/27 03:58:02;;;;;;;15.97;12.73;;;;;;;;;;4968621;28;20046;-64
2022/06/27 04:00:32;;;;;;;13.77;12.27;;;;;;;;;;4967446;28;20448;-64
2022/06/27 04:02:58;;;;;;;18.13;13.47;;;;;;;;;;4967810;28;20429;-63
2022/06/27 04:05:24;;;;;;;19.30;13.07;;;;;;;;;;4967312;28;20054;-64
2022/06/27 04:08:03;;;;;;;19.07;14.93;;;;;;;;;;4968033;28;20042;-64
2022/06/27 04:10:32;;;;;;;21.00;15.37;;;;;;;;;;4968030;28;20140;-63
2022/06/27 04:13:05;;;;;;;22.27;15.90;;;;;;;;;;4967682;28;20160;-63
2022/06/27 04:15:31;;;;;;;22.73;16.63;;;;;;;;;;4950544;28;20070;-63
2022/06/27 04:18:16;;;;;;;19.67;16.37;;;;;;;;;;4968712;28;20047;-64
2022/06/27 04:20:44;;;;;;;22.37;16.33;;;;;;;;;;4950030;28;20078;-63
2022/06/27 04:26:36;;;;;;;21.83;15.40;;;;;;;;;;4962543;28;20034;-63
2022/06/27 04:29:02;;;;;;;22.10;16.50;;;;;;;;;;4966657;28;20039;-64
2022/06/27 04:31:28;;;;;;;17.93;14.37;;;;;;;;;;4967083;28;20506;-63
2022/06/27 04:34:02;;;;;;;17.80;13.43;;;;;;;;;;4967259;28;20051;-64
2022/06/27 04:36:28;;;;;;;16.20;12.70;;;;;;;;;;4963852;28;20117;-64
2022/06/27 04:38:59;;;;;;;17.33;11.57;;;;;;;;;;4967767;28;20117;-63
2022/06/27 04:41:26;;;;;;;17.10;12.67;;;;;;;;;;4967609;28;20039;-63
2022/06/27 04:43:54;;;;;;;14.97;11.73;;;;;;;;;;4966914;28;20133;-63
2022/06/27 04:49:43;;;;;;;11.10;9.80;;;;;;;;;;4967971;28;20438;-64
2022/06/27 04:52:12;;;;;;;13.07;9.50;;;;;;;;;;4968851;28;20074;-64
2022/06/27 04:54:38;;;;;;;12.40;8.60;;;;;;;;;;4951889;28;20470;-63
2022/06/27 04:57:05;;;;;;;8.97;7.73;;;;;;;;;;4974536;28;20420;-63
2022/06/27 04:59:34;;;;;;;11.17;8.10;;;;;;;;;;4967267;28;20042;-64
2022/06/27 05:02:03;;;;;;;9.90;7.07;;;;;;;;;;4971837;28;20797;-63
2022/06/27 05:04:32;;;;;;;8.00;5.27;;;;;;;;;;4964304;28;20055;-64
2022/06/27 05:06:59;;;;;;;9.33;7.07;;;;;;;;;;4971229;28;20066;-64
2022/06/27 05:09:27;;;;;;;10.27;6.73;;;;;;;;;;4970473;28;20047;-64
2022/06/27 05:11:56;;;;;;;10.37;7.73;;;;;;;;;;4969823;28;20121;-63
2022/06/27 05:14:24;;;;;;;7.40;6.40;;;;;;;;;;4970466;28;20393;-63
2022/06/27 05:16:50;;;;;;;7.03;6.00;;;;;;;;;;4970372;28;20050;-64
2022/06/27 05:19:16;;;;;;;9.60;5.53;;;;;;;;;;4970242;28;20133;-65
2022/06/27 05:21:45;;;;;;;8.70;5.87;;;;;;;;;;4971065;28;20164;-64
2022/06/27 05:24:11;;;;;;;9.03;5.60;;;;;;;;;;4972654;28;20163;-64
2022/06/27 05:26:40;;;;;;;6.70;5.03;;;;;;;;;;4971957;28;20046;-63
2022/06/27 05:29:07;;;;;;;7.70;4.37;;;;;;;;;;4971481;28;20050;-63
2022/06/27 05:31:33;;;;;;;5.20;3.93;;;;;;;;;;4971359;28;20051;-64
2022/06/27 05:33:59;;;;;;;6.03;4.40;;;;;;;;;;4970871;28;20566;-63
2022/06/27 05:36:25;;;;;;;5.27;4.23;;;;;;;;;;4971068;28;20121;-64
2022/06/27 05:38:51;;;;;;;4.73;4.03;;;;;;;;;;4971320;28;20082;-64
2022/06/27 05:41:17;;;;;;;6.27;4.50;;;;;;;;;;4971218;28;20468;-64
2022/06/27 05:43:43;;;;;;;5.73;3.33;;;;;;;;;;4971357;28;20075;-64
2022/06/27 05:46:09;;;;;;;7.03;3.60;;;;;;;;;;4970898;28;20078;-63
2022/06/27 05:48:37;;;;;;;5.03;4.07;;;;;;;;;;4971075;28;20073;-64
2022/06/27 05:51:03;;;;;;;4.93;3.70;;;;;;;;;;4970658;28;20047;-64
2022/06/27 05:53:30;;;;;;;6.00;4.47;;;;;;;;;;4970901;28;20043;-64
2022/06/27 05:55:56;;;;;;;4.93;3.47;;;;;;;;;;4970560;28;20057;-64
2022/06/27 05:58:22;;;;;;;7.20;4.33;;;;;;;;;;4971420;28;20050;-64
2022/06/27 06:00:48;;;;;;;6.03;3.80;;;;;;;;;;4951115;28;20050;-65
2022/06/27 06:03:17;;;;;;;5.47;4.23;;;;;;;;;;4968631;28;20050;-64
2022/06/27 06:05:44;;;;;;;5.47;4.00;;;;;;;;;;4970585;28;20141;-64
2022/06/27 06:08:11;;;;;;;4.03;3.23;;;;;;;;;;4951266;28;20050;-64
2022/06/27 06:10:38;;;;;;;5.53;4.10;;;;;;;;;;4970275;28;20065;-64
2022/06/27 06:13:04;;;;;;;4.30;3.47;;;;;;;;;;4970422;28;20074;-63
2022/06/27 06:15:31;;;;;;;4.87;3.80;;;;;;;;;;4971472;28;20141;-64
2022/06/27 06:18:03;;;;;;;4.83;3.63;;;;;;;;;;4970745;28;20484;-64
2022/06/27 06:20:31;;;;;;;4.73;3.23;;;;;;;;;;4971742;28;20824;-64
2022/06/27 06:23:00;;;;;;;4.07;2.77;;;;;;;;;;4990780;28;20050;-63
2022/06/27 06:25:27;;;;;;;4.07;3.37;;;;;;;;;;4990494;28;20054;-63
2022/06/27 06:28:02;;;;;;;5.70;3.20;;;;;;;;;;4989242;28;20038;-63
2022/06/27 06:30:29;;;;;;;7.17;3.03;;;;;;;;;;4988675;28;20047;-64
2022/06/27 06:32:56;;;;;;;5.37;2.97;;;;;;;;;;4989219;28;20480;-63
2022/06/27 06:35:27;;;;;;;6.57;3.00;;;;;;;;;;4989248;28;20121;-63
2022/06/27 06:37:53;;;;;;;6.67;3.47;;;;;;;;;;4986283;28;20461;-64
2022/06/27 06:40:19;;;;;;;5.80;2.90;;;;;;;;;;4989446;28;20046;-63
2022/06/27 06:42:45;;;;;;;8.70;2.73;;;;;;;;;;4989536;28;20441;-64
2022/06/27 06:45:12;;;;;;;2.93;2.30;;;;;;;;;;4989652;28;20046;-63
2022/06/27 06:47:48;;;;;;;3.57;2.20;;;;;;;;;;4987306;28;20504;-63
2022/06/27 06:50:20;;;;;;;5.33;2.90;;;;;;;;;;4989456;28;20050;-63
2022/06/27 06:52:49;;;;;;;6.43;2.40;;;;;;;;;;4978353;28;20090;-63
2022/06/27 06:55:16;;;;;;;2.83;1.97;;;;;;;;;;4989018;28;20050;-63
2022/06/27 06:57:42;;;;;;;4.63;2.63;;;;;;;;;;4988916;28;20456;-64
2022/06/27 07:00:10;;;;;;;5.33;2.67;;;;;;;;;;4988757;28;20038;-64
2022/06/27 07:02:37;;;;;;;5.17;3.37;;;;;;;;;;4989021;28;20052;-64
2022/06/27 07:05:04;;;;;;;3.93;2.37;;;;;;;;;;4988731;28;20101;-63
2022/06/27 07:07:32;;;;;;;5.33;2.87;;;;;;;;;;4988894;28;20054;-64
2022/06/27 07:09:59;;;;;;;3.47;2.40;;;;;;;;;;4988575;28;20097;-64
2022/06/27 07:12:25;;;;;;;5.70;2.90;;;;;;;;;;4988957;28;20049;-64
2022/06/27 07:14:54;;;;;;;3.17;2.03;;;;;;;;;;4988869;28;20046;-64
2022/06/27 07:17:24;;;;;;;3.50;2.70;;;;;;;;;;4988856;28;20050;-64
2022/06/27 07:19:54;;;;;;;4.20;2.10;;;;;;;;;;4989025;28;20054;-64
2022/06/27 07:22:23;;;;;;;4.20;2.10;;;;;;;;;;4966984;28;20085;-65
2022/06/27 07:24:49;;;;;;;3.60;2.00;;;;;;;;;;4967970;28;20054;-62
2022/06/27 07:27:16;;;;;;;3.40;2.30;;;;;;;;;;4967468;28;20050;-64
2022/06/27 07:29:42;;;;;;;8.40;2.67;;;;;;;;;;4970178;28;20134;-64
2022/06/27 07:32:11;;;;;;;3.47;2.70;;;;;;;;;;4969702;28;20045;-64
2022/06/27 07:34:40;;;;;;;4.23;2.67;;;;;;;;;;4969179;28;20170;-63
2022/06/27 07:37:06;;;;;;;2.50;2.10;;;;;;;;;;4969324;28;20108;-63
2022/06/27 07:39:32;;;;;;;3.90;2.30;;;;;;;;;;4969184;28;20449;-63
2022/06/27 07:41:59;;;;;;;4.33;2.43;;;;;;;;;;4972092;28;20053;-64
2022/06/27 07:44:25;;;;;;;4.93;3.03;;;;;;;;;;4968969;28;20047;-64
2022/06/27 07:46:51;;;;;;;3.70;2.57;;;;;;;;;;4969338;28;20043;-64
2022/06/27 07:49:17;;;;;;;4.53;2.60;;;;;;;;;;4968790;28;20082;-64
2022/06/27 07:51:43;;;;;;;3.97;2.70;;;;;;;;;;4969408;28;20881;-63
2022/06/27 07:54:10;;;;;;;4.60;2.87;;;;;;;;;;4968611;28;20074;-63
2022/06/27 07:56:36;;;;;;;3.30;2.43;;;;;;;;;;4969052;28;20043;-63
2022/06/27 07:59:05;;;;;;;4.87;2.77;;;;;;;;;;4951977;28;20163;-64
2022/06/27 08:01:31;;;;;;;2.90;2.53;;;;;;;;;;4969238;28;20051;-64
2022/06/27 08:03:57;;;;;;;7.57;2.73;;;;;;;;;;4969052;28;20046;-63
2022/06/27 08:06:27;;;;;;;3.67;2.60;;;;;;;;;;4968721;28;20058;-63
2022/06/27 08:09:01;;;;;;;3.73;2.93;;;;;;;;;;4968645;28;20371;-63
2022/06/27 08:11:35;;;;;;;3.63;2.57;;;;;;;;;;4967881;28;20054;-63
2022/06/27 08:14:03;;;;;;;3.77;2.30;;;;;;;;;;4969424;28;20449;-64
2022/06/27 08:16:30;;;;;;;3.33;2.20;;;;;;;;;;4969477;28;20460;-63
2022/06/27 08:18:56;;;;;;;3.87;2.33;;;;;;;;;;4969716;28;20082;-63
2022/06/27 08:21:27;;;;;;;4.57;2.90;;;;;;;;;;4968975;28;20054;-63
2022/06/27 08:23:56;;;;;;;4.00;2.80;;;;;;;;;;4969046;28;20102;-63
2022/06/27 08:26:23;;;;;;;4.23;2.47;;;;;;;;;;4969239;28;20061;-63
2022/06/27 08:28:51;;;;;;;3.50;2.17;;;;;;;;;;4969255;28;20473;-63
2022/06/27 08:31:17;;;;;;;3.20;1.90;;;;;;;;;;4969177;28;20057;-63
2022/06/27 08:33:45;;;;;;;3.20;2.07;;;;;;;;;;4969475;28;20437;-63
2022/06/27 08:36:12;;;;;;;2.17;1.70;;;;;;;;;;4972047;28;20098;-63
2022/06/27 08:38:50;;;;;;;3.20;2.07;;;;;;;;;;4973373;28;20074;-63
2022/06/27 08:41:17;;;;;;;3.83;2.00;;;;;;;;;;4972922;28;20129;-63
2022/06/27 08:43:43;;;;;;;3.57;2.37;;;;;;;;;;4972552;28;20053;-63
2022/06/27 08:46:13;;;;;;;6.20;2.60;;;;;;;;;;4973174;28;20042;-63
2022/06/27 08:48:41;;;;;;;3.17;2.23;;;;;;;;;;4972990;28;20051;-63
2022/06/27 08:51:07;;;;;;;4.63;2.27;;;;;;;;;;4972430;28;20055;-63
2022/06/27 08:53:34;;;;;;;3.90;2.40;;;;;;;;;;4972160;28;20047;-63
2022/06/27 08:56:01;;;;;;;3.70;2.53;;;;;;;;;;4972695;28;20466;-63
2022/06/27 08:58:29;;;;;;;2.70;1.77;;;;;;;;;;4972722;28;20051;-63
2022/06/27 09:00:56;;;;;;;4.97;3.83;;;;;;;;;;4972775;28;20051;-63
2022/06/27 09:03:23;;;;;;;3.67;2.10;;;;;;;;;;4972476;28;20042;-63
2022/06/27 09:05:57;;;;;;;4.33;2.70;;;;;;;;;;4972657;28;20050;-63
2022/06/27 09:08:24;;;;;;;4.30;2.90;;;;;;;;;;4972143;28;20576;-63
2022/06/27 09:10:50;;;;;;;5.40;2.57;;;;;;;;;;4972536;28;20509;-63
2022/06/27 09:13:17;;;;;;;3.50;2.30;;;;;;;;;;4972139;28;20054;-63
2022/06/27 09:15:56;;;;;;;4.00;2.40;;;;;;;;;;4972457;28;20046;-64
2022/06/27 09:18:26;;;;;;;3.00;2.67;;;;;;;;;;4971973;28;20083;-63
2022/06/27 09:20:54;;;;;;;3.50;2.60;;;;;;;;;;4972222;28;20398;-63
2022/06/27 09:23:40;;;;;;;7.73;3.00;;;;;;;;;;4972403;28;20073;-62
2022/06/27 09:26:10;;;;;;;5.43;2.60;;;;;;;;;;4971894;28;20047;-63
2022/06/27 09:28:41;;;;;;;4.97;2.50;;;;;;;;;;4972129;28;20054;-62
2022/06/27 09:31:11;;;;;;;2.90;1.93;;;;;;;;;;4972445;28;20055;-63
2022/06/27 09:33:41;;;;;;;3.67;2.10;;;;;;;;;;4972518;28;20050;-62
2022/06/27 09:36:13;;;;;;;2.60;1.83;;;;;;;;;;4971927;28;20527;-62
2022/06/27 09:38:40;;;;;;;3.00;1.83;;;;;;;;;;4972480;28;20428;-63
2022/06/27 09:41:09;;;;;;;4.40;2.40;;;;;;;;;;4972092;28;20039;-62
2022/06/27 09:43:36;;;;;;;3.73;1.90;;;;;;;;;;4971534;28;20517;-63
2022/06/27 09:46:03;;;;;;;3.60;1.70;;;;;;;;;;4971166;28;20351;-62
2022/06/27 09:48:29;;;;;;;4.13;1.90;;;;;;;;;;4972322;28;20456;-62
2022/06/27 09:50:56;;;;;;;2.43;1.40;;;;;;;;;;4972305;28;20047;-63
2022/06/27 09:53:26;;;;;;;3.10;1.53;;;;;;;;;;4972210;28;20145;-62
2022/06/27 09:55:53;;;;;;;3.03;1.40;;;;;;;;;;4971917;28;20043;-62
2022/06/27 09:58:20;;;;;;;5.43;2.30;;;;;;;;;;4972106;28;20047;-63
2022/06/27 10:00:47;;;;;;;4.43;1.93;;;;;;;;;;4971508;28;20045;-62
2022/06/27 10:03:13;;;;;;;6.83;1.87;;;;;;;;;;4971977;28;20053;-62
2022/06/27 10:05:41;;;;;;;4.27;2.30;;;;;;;;;;4971947;28;20137;-62
2022/06/27 10:08:08;;;;;;;2.83;2.03;;;;;;;;;;4971710;28;20051;-62
2022/06/27 10:10:54;;;;;;;3.87;2.23;;;;;;;;;;4971908;28;20053;-63
2022/06/27 10:13:20;;;;;;;5.63;2.50;;;;;;;;;;4971099;28;20098;-63
2022/06/27 10:15:48;;;;;;;3.70;2.40;;;;;;;;;;4971723;28;20054;-62
2022/06/27 10:18:14;;;;;;;3.90;2.30;;;;;;;;;;4971638;28;20039;-63
2022/06/27 10:20:47;;;;;;;3.33;2.53;;;;;;;;;;4971348;28;20042;-62
2022/06/27 10:23:18;;;;;;;3.63;2.50;;;;;;;;;;4971189;28;20057;-63
2022/06/27 10:25:45;;;;;;;5.40;2.93;;;;;;;;;;4971538;28;20413;-62
2022/06/27 10:28:14;;;;;;;5.50;2.80;;;;;;;;;;4971259;28;20054;-63
2022/06/27 10:30:55;;;;;;;5.00;2.93;;;;;;;;;;4971360;28;20046;-63
2022/06/27 10:33:21;;;;;;;4.60;2.67;;;;;;;;;;4971217;28;20055;-62
2022/06/27 10:36:02;;;;;;;4.53;2.80;;;;;;;;;;4970939;28;20061;-62
2022/06/27 10:38:32;;;;;;;4.73;3.13;;;;;;;;;;4971154;28;20707;-63
2022/06/27 10:40:59;;;;;;;5.27;3.20;;;;;;;;;;4971239;28;20051;-62
2022/06/27 10:43:37;;;;;;;6.53;2.87;;;;;;;;;;4971121;28;20093;-62
2022/06/27 10:46:06;;;;;;;3.80;3.00;;;;;;;;;;4970994;28;20118;-62
2022/06/27 10:48:36;;;;;;;3.37;2.50;;;;;;;;;;4970401;28;20401;-62
2022/06/27 10:51:26;;;;;;;5.57;2.77;;;;;;;;;;4971089;28;20390;-62
2022/06/27 10:54:08;;;;;;;6.60;2.90;;;;;;;;;;4970931;28;20129;-62
2022/06/27 10:56:37;;;;;;;4.00;2.80;;;;;;;;;;4970615;28;20138;-62
2022/06/27 10:59:07;;;;;;;8.13;2.90;;;;;;;;;;4970660;28;20506;-62
2022/06/27 11:01:34;;;;;;;8.30;3.27;;;;;;;;;;4971160;28;20055;-62
2022/06/27 11:04:00;;;;;;;6.60;3.00;;;;;;;;;;4970901;28;20061;-62
2022/06/27 11:06:27;;;;;;;6.57;2.97;;;;;;;;;;4953498;28;20408;-62
2022/06/27 11:08:53;;;;;;;6.97;3.80;;;;;;;;;;4970430;28;20086;-62
2022/06/27 11:11:30;;;;;;;4.20;3.03;;;;;;;;;;4970449;28;20081;-62
2022/06/27 11:13:56;;;;;;;5.43;3.87;;;;;;;;;;4970535;28;20057;-63
2022/06/27 11:16:26;;;;;;;5.50;3.10;;;;;;;;;;4970426;28;20137;-62
2022/06/27 11:19:00;;;;;;;6.50;3.30;;;;;;;;;;4970269;28;20043;-62
2022/06/27 11:21:36;;;;;;;4.07;2.97;;;;;;;;;;4970058;28;20078;-62
2022/06/27 11:24:09;;;;;;;5.93;3.30;;;;;;;;;;4970352;28;20497;-62
2022/06/27 11:26:57;;;;;;;4.00;3.60;;;;;;;;;;4970548;28;20047;-62
2022/06/27 11:32:11;;;;;;;3.87;2.80;;;;;;;;;;4970108;28;20051;-62
2022/06/27 11:34:41;;;;;;;6.83;3.00;;;;;;;;;;4970093;28;20061;-63
2022/06/27 11:37:13;;;;;;;5.10;3.30;;;;;;;;;;4970455;28;20406;-62
2022/06/27 11:39:40;;;;;;;4.57;2.70;;;;;;;;;;4970258;28;20054;-62
2022/06/27 11:42:10;;;;;;;5.17;3.33;;;;;;;;;;4969670;28;20043;-63
2022/06/27 11:44:37;;;;;;;5.22;2.78;;;;;;;;;;4970144;28;20062;-62
2022/06/27 11:47:04;;;;;;;4.53;3.15;;;;;;;;;;4969630;28;20042;-62
2022/06/27 11:49:35;;;;;;;5.72;2.85;;;;;;;;;;4969754;28;20050;-62
2022/06/27 11:52:10;;;;;;;5.60;3.08;;;;;;;;;;4969760;28;20440;-62
2022/06/27 11:54:37;;;;;;;6.15;3.00;;;;;;;;;;4969629;28;20054;-63
2022/06/27 11:57:03;;;;;;;6.00;3.40;;;;;;;;;;4969732;28;20409;-63
2022/06/27 11:59:30;;;;;;;4.95;2.78;;;;;;;;;;4969527;28;20043;-62
2022/06/27 12:01:58;;;;;;;6.22;3.28;;;;;;;;;;4969778;28;20047;-62
2022/06/27 12:04:27;;;;;;;5.27;2.30;;;;;;;;;;4969736;28;20039;-62
2022/06/27 12:06:54;;;;;;;5.20;2.72;;;;;;;;;;4969358;28;20149;-62
2022/06/27 12:09:21;;;;;;;5.47;3.20;;;;;;;;;;4968971;28;20047;-62
2022/06/27 12:11:48;;;;;;;8.82;2.80;;;;;;;;;;4969560;28;20416;-62
2022/06/27 12:14:15;;;;;;;7.07;2.45;;;;;;;;;;4969465;28;20148;-62
2022/06/27 12:16:48;;;;;;;3.95;2.65;;;;;;;;;;4969307;28;20514;-63
2022/06/27 12:19:14;;;;;;;4.15;2.72;;;;;;;;;;4969860;28;20043;-63
2022/06/27 12:21:41;;;;;;;6.90;2.88;;;;;;;;;;4968916;28;20051;-63
2022/06/27 12:24:07;;;;;;;5.28;3.17;;;;;;;;;;4969743;28;20468;-63
2022/06/27 12:26:33;;;;;;;5.43;2.30;;;;;;;;;;4969679;28;20074;-63
2022/06/27 12:28:59;;;;;;;9.07;3.35;;;;;;;;;;4969436;28;20050;-63
2022/06/27 12:31:25;;;;;;;4.55;3.42;;;;;;;;;;4969517;28;20610;-64
2022/06/27 12:33:51;;;;;;;6.18;2.92;;;;;;;;;;4969931;28;20119;-63
2022/06/27 12:36:18;;;;;;;3.63;2.30;;;;;;;;;;4969386;28;20520;-61
2022/06/27 12:38:44;;;;;;;7.35;3.25;;;;;;;;;;4969312;28;20394;-61
2022/06/27 12:41:14;;;;;;;4.93;2.65;;;;;;;;;;4968746;28;20089;-61
2022/06/27 12:43:47;;;;;;;4.45;2.67;;;;;;;;;;4969715;28;20082;-61
2022/06/27 12:46:14;;;;;;;5.18;2.20;;;;;;;;;;4969053;28;20737;-61
2022/06/27 12:48:41;;;;;;;6.47;2.85;;;;;;;;;;4969330;28;20043;-61
2022/06/27 12:51:07;;;;;;;5.20;2.97;;;;;;;;;;4969347;28;20056;-61
2022/06/27 12:53:34;;;;;;;4.88;2.85;;;;;;;;;;4969401;28;20053;-63
2022/06/27 12:56:02;;;;;;;7.43;3.58;;;;;;;;;;4968843;28;20082;-63
2022/06/27 12:58:28;;;;;;;5.30;2.15;;;;;;;;;;4969430;28;20121;-63
2022/06/27 13:00:54;;;;;;;5.50;2.28;;;;;;;;;;4969546;28;20134;-62
2022/06/27 13:03:20;;;;;;;5.90;2.63;;;;;;;;;;4969380;28;20122;-62
2022/06/27 13:05:46;;;;;;;6.00;2.60;;;;;;;;;;4969614;28;20054;-63
2022/06/27 13:08:12;;;;;;;7.15;2.45;;;;;;;;;;4968890;28;20552;-63
2022/06/27 13:10:39;;;;;;;5.47;3.50;;;;;;;;;;4969408;28;20068;-62
2022/06/27 13:13:05;;;;;;;4.15;3.15;;;;;;;;;;4968936;28;20057;-62
2022/06/27 13:15:34;;;;;;;5.20;3.13;;;;;;;;;;4969318;28;20059;-62
2022/06/27 13:18:00;;;;;;;5.65;2.70;;;;;;;;;;4969029;28;20047;-63
2022/06/27 13:20:26;;;;;;;6.00;2.47;;;;;;;;;;4968956;28;20051;-63
2022/06/27 13:22:53;;;;;;;4.07;2.22;;;;;;;;;;4971196;28;20063;-62
2022/06/27 13:25:19;;;;;;;5.13;2.78;;;;;;;;;;4972410;28;20051;-62
2022/06/27 13:27:45;;;;;;;4.63;3.10;;;;;;;;;;4972584;28;20055;-62
2022/06/27 13:30:12;;;;;;;5.38;3.08;;;;;;;;;;4972480;28;20047;-63
2022/06/27 13:32:38;;;;;;;4.90;2.80;;;;;;;;;;4972521;28;20127;-62
2022/06/27 13:35:05;;;;;;;8.25;3.40;;;;;;;;;;4971858;28;20054;-62
2022/06/27 13:37:31;;;;;;;5.43;3.13;;;;;;;;;;4972292;28;20529;-63
2022/06/27 13:39:57;;;;;;;4.80;2.47;;;;;;;;;;4972207;28;20062;-62
2022/06/27 13:42:23;;;;;;;3.27;2.07;;;;;;;;;;4972337;28;20043;-63
2022/06/27 13:44:49;;;;;;;5.20;3.03;;;;;;;;;;4972465;28;20085;-63
2022/06/27 13:47:16;;;;;;;6.33;2.60;;;;;;;;;;4954920;28;20073;-62
2022/06/27 13:49:42;;;;;;;7.63;3.80;;;;;;;;;;4972026;28;20117;-63
2022/06/27 13:52:08;;;;;;;7.33;3.23;;;;;;;;;;4971976;28;20493;-62
2022/06/27 13:54:35;;;;;;;4.70;3.15;;;;;;;;;;4972012;28;20062;-62
2022/06/27 13:57:01;;;;;;;6.47;3.33;;;;;;;;;;4972138;28;20054;-63
2022/06/27 13:59:27;;;;;;;5.83;3.70;;;;;;;;;;4971648;28;20390;-62
2022/06/27 14:01:53;;;;;;;5.50;4.13;;;;;;;;;;4971922;28;20074;-63
2022/06/27 14:04:19;;;;;;;8.83;4.07;;;;;;;;;;4972143;28;20054;-62
2022/06/27 14:09:31;;;;;;;6.27;4.07;;;;;;;;;;4954739;28;20055;-63
2022/06/27 14:11:57;;;;;;;9.40;4.03;;;;;;;;;;4954583;28;20109;-63
2022/06/27 14:14:23;;;;;;;5.57;4.40;;;;;;;;;;4971575;28;20109;-63
2022/06/27 14:16:49;;;;;;;6.73;4.20;;;;;;;;;;4971774;28;20055;-63
2022/06/27 14:19:16;;;;;;;7.13;4.40;;;;;;;;;;4970994;28;20047;-64
2022/06/27 14:21:42;;;;;;;7.00;4.43;;;;;;;;;;4971512;28;20142;-63
2022/06/27 14:24:08;;;;;;;9.03;4.70;;;;;;;;;;4971761;28;20402;-63
2022/06/27 14:26:35;;;;;;;7.63;4.43;;;;;;;;;;4970647;28;20054;-63
2022/06/27 14:29:01;;;;;;;6.30;4.93;;;;;;;;;;4971262;28;20065;-63
2022/06/27 14:31:27;;;;;;;7.00;5.30;;;;;;;;;;4971434;28;20050;-63
2022/06/27 14:33:53;;;;;;;9.77;4.70;;;;;;;;;;4970715;28;20555;-62
2022/06/27 14:36:20;;;;;;;6.50;4.13;;;;;;;;;;4971176;28;20141;-63
2022/06/27 14:38:46;;;;;;;8.00;4.60;;;;;;;;;;4971283;28;20129;-63
2022/06/27 14:41:12;;;;;;;7.70;4.97;;;;;;;;;;4971448;28;20130;-63
2022/06/27 14:43:38;;;;;;;6.67;4.03;;;;;;;;;;4970818;28;20085;-63
2022/06/27 14:46:04;;;;;;;5.90;3.70;;;;;;;;;;4971304;28;20047;-63
2022/06/27 14:48:30;;;;;;;5.13;4.10;;;;;;;;;;4971041;28;20043;-62
2022/06/27 14:50:57;;;;;;;6.50;4.73;;;;;;;;;;4953948;28;20130;-63
2022/06/27 14:53:23;;;;;;;8.13;3.80;;;;;;;;;;4970807;28;20060;-63
2022/06/27 14:55:49;;;;;;;6.23;4.70;;;;;;;;;;4970920;28;20508;-63
2022/06/27 14:58:15;;;;;;;9.40;4.83;;;;;;;;;;4970575;28;20452;-63
2022/06/27 15:00:41;;;;;;;10.70;5.27;;;;;;;;;;4970993;28;20053;-63
2022/06/27 15:03:07;;;;;;;12.20;5.93;;;;;;;;;;4970798;28;20055;-63
2022/06/27 15:05:33;;;;;;;6.80;4.97;;;;;;;;;;4970332;28;20047;-64
2022/06/27 15:07:59;;;;;;;7.63;5.17;;;;;;;;;;4970961;28;20050;-63
2022/06/27 15:10:25;;;;;;;7.10;5.60;;;;;;;;;;4970875;28;20039;-64
2022/06/27 15:12:51;;;;;;;10.53;6.17;;;;;;;;;;4970635;28;20079;-63
2022/06/27 15:15:17;;;;;;;9.37;6.67;;;;;;;;;;4970564;28;20101;-63
2022/06/27 15:17:43;;;;;;;7.03;6.33;;;;;;;;;;4970273;28;20131;-64
2022/06/27 15:20:13;;;;;;;9.87;6.23;;;;;;;;;;4953486;28;20059;-63